createdAt,value
2016-09-10T00:00:18.779Z,0
2016-09-10T00:01:18.812Z,0
2016-09-10T00:02:18.831Z,0
2016-09-10T00:03:18.847Z,0
2016-09-10T00:04:18.863Z,0
2016-09-10T00:05:18.897Z,0
2016-09-10T00:06:18.914Z,0
2016-09-10T00:07:18.936Z,0
2016-09-10T00:08:18.952Z,0
2016-09-10T00:09:18.992Z,0
2016-09-10T00:10:18.997Z,0
2016-09-10T00:11:19.060Z,0
2016-09-10T00:12:19.127Z,0
2016-09-10T00:13:19.075Z,0
2016-09-10T00:14:19.453Z,0
2016-09-10T00:15:19.108Z,0
2016-09-10T00:16:19.199Z,0
2016-09-10T00:17:19.186Z,0
2016-09-10T00:18:19.186Z,0
2016-09-10T00:19:19.219Z,0
2016-09-10T00:20:19.223Z,0
2016-09-10T00:21:19.428Z,0
2016-09-10T00:22:19.303Z,0
2016-09-10T00:23:19.641Z,0
2016-09-10T00:24:19.787Z,0
2016-09-10T00:25:19.374Z,0
2016-09-10T00:26:19.339Z,0
2016-09-10T00:27:19.382Z,0
2016-09-10T00:28:19.394Z,0
2016-09-10T00:29:20.126Z,0
2016-09-10T00:30:19.463Z,0
2016-09-10T00:31:19.466Z,0
2016-09-10T00:32:19.575Z,0
2016-09-10T00:33:19.856Z,0
2016-09-10T00:34:19.517Z,0
2016-09-10T00:35:19.541Z,0
2016-09-10T00:36:19.554Z,0
2016-09-10T00:37:19.594Z,0
2016-09-10T00:38:19.618Z,0
2016-09-10T00:39:19.614Z,0
2016-09-10T00:40:19.739Z,0
2016-09-10T00:41:19.668Z,0
2016-09-10T00:42:19.752Z,0
2016-09-10T00:43:19.705Z,0
2016-09-10T00:44:19.769Z,0
2016-09-10T00:45:19.790Z,0
2016-09-10T00:46:20.092Z,0
2016-09-10T00:47:19.803Z,0
2016-09-10T00:48:19.831Z,0
2016-09-10T00:49:19.846Z,0
2016-09-10T00:50:19.866Z,0
2016-09-10T00:51:19.905Z,0
2016-09-10T00:52:20.113Z,0
2016-09-10T00:53:19.913Z,0
2016-09-10T00:54:19.928Z,0
2016-09-10T00:55:19.981Z,0
2016-09-10T00:56:19.973Z,0
2016-09-10T00:57:20.024Z,0
2016-09-10T00:58:20.344Z,0
2016-09-10T00:59:20.402Z,0
2016-09-10T01:00:20.467Z,0
2016-09-10T01:01:20.091Z,0
2016-09-10T01:02:20.129Z,0
2016-09-10T01:03:20.134Z,0
2016-09-10T01:04:20.155Z,0
2016-09-10T01:05:20.161Z,0
2016-09-10T01:06:20.554Z,0
2016-09-10T01:07:20.244Z,0
2016-09-10T01:08:20.260Z,0
2016-09-10T01:09:20.304Z,0
2016-09-10T01:10:20.281Z,0
2016-09-10T01:11:20.311Z,0
2016-09-10T01:12:20.329Z,0
2016-09-10T01:13:20.349Z,0
2016-09-10T01:14:20.377Z,0
2016-09-10T01:15:20.394Z,0
2016-09-10T01:16:20.437Z,0
2016-09-10T01:17:20.450Z,0
2016-09-10T01:18:20.462Z,0
2016-09-10T01:19:20.499Z,0
2016-09-10T01:20:20.487Z,0
2016-09-10T01:21:20.534Z,0
2016-09-10T01:22:20.526Z,0
2016-09-10T01:23:20.563Z,0
2016-09-10T01:24:20.572Z,0
2016-09-10T01:25:20.606Z,0
2016-09-10T01:26:20.942Z,0
2016-09-10T01:27:20.651Z,0
2016-09-10T01:28:20.698Z,0
2016-09-10T01:29:20.677Z,0
2016-09-10T01:30:20.693Z,0
2016-09-10T01:31:20.723Z,0
2016-09-10T01:32:20.736Z,0
2016-09-10T01:33:20.804Z,0
2016-09-10T01:34:20.782Z,0
2016-09-10T01:35:20.822Z,0
2016-09-10T01:36:20.825Z,0
2016-09-10T01:37:21.000Z,0
2016-09-10T01:38:20.890Z,0
2016-09-10T01:39:21.229Z,0
2016-09-10T01:40:21.231Z,0
2016-09-10T01:41:21.358Z,0
2016-09-10T01:42:20.997Z,0
2016-09-10T01:43:21.417Z,0
2016-09-10T01:44:21.306Z,0
2016-09-10T01:45:21.011Z,0
2016-09-10T01:46:21.137Z,0
2016-09-10T01:47:21.452Z,0
2016-09-10T01:48:21.095Z,0
2016-09-10T01:49:21.161Z,0
2016-09-10T01:50:21.113Z,0
2016-09-10T01:51:21.478Z,0
2016-09-10T01:52:21.497Z,0
2016-09-10T01:53:21.173Z,0
2016-09-10T01:54:21.241Z,0
2016-09-10T01:55:21.228Z,0
2016-09-10T01:56:21.392Z,0
2016-09-10T01:57:21.274Z,0
2016-09-10T01:58:21.294Z,0
2016-09-10T01:59:21.370Z,0
2016-09-10T02:00:21.343Z,0
2016-09-10T02:01:21.367Z,0
2016-09-10T02:02:21.380Z,0
2016-09-10T02:03:21.745Z,0
2016-09-10T02:04:21.449Z,0
2016-09-10T02:05:21.820Z,0
2016-09-10T02:06:21.478Z,0
2016-09-10T02:07:21.495Z,0
2016-09-10T02:08:21.505Z,0
2016-09-10T02:09:21.566Z,0
2016-09-10T02:10:21.570Z,0
2016-09-10T02:11:21.573Z,0
2016-09-10T02:12:21.577Z,0
2016-09-10T02:13:21.616Z,0
2016-09-10T02:14:21.642Z,0
2016-09-10T02:15:21.653Z,0
2016-09-10T02:16:21.675Z,0
2016-09-10T02:17:21.690Z,0
2016-09-10T02:18:21.725Z,0
2016-09-10T02:19:22.058Z,0
2016-09-10T02:20:21.762Z,0
2016-09-10T02:21:22.086Z,0
2016-09-10T02:22:21.799Z,0
2016-09-10T02:23:22.136Z,0
2016-09-10T02:24:22.202Z,0
2016-09-10T02:25:21.853Z,0
2016-09-10T02:26:21.957Z,0
2016-09-10T02:27:21.916Z,0
2016-09-10T02:28:21.972Z,0
2016-09-10T02:29:21.930Z,0
2016-09-10T02:30:22.052Z,0
2016-09-10T02:31:21.996Z,0
2016-09-10T02:32:22.095Z,0
2016-09-10T02:33:22.016Z,0
2016-09-10T02:34:22.091Z,0
2016-09-10T02:35:22.086Z,0
2016-09-10T02:36:22.146Z,0
2016-09-10T02:37:22.119Z,0
2016-09-10T02:38:22.153Z,0
2016-09-10T02:39:22.346Z,0
2016-09-10T02:40:22.204Z,0
2016-09-10T02:41:22.230Z,0
2016-09-10T02:42:22.549Z,0
2016-09-10T02:43:22.238Z,0
2016-09-10T02:44:22.276Z,0
2016-09-10T02:45:22.287Z,0
2016-09-10T02:46:22.309Z,0
2016-09-10T02:47:22.327Z,0
2016-09-10T02:48:22.359Z,0
2016-09-10T02:49:22.355Z,0
2016-09-10T02:50:22.495Z,0
2016-09-10T02:51:23.838Z,0
2016-09-10T02:52:22.555Z,0
2016-09-10T02:53:22.465Z,0
2016-09-10T02:54:22.503Z,0
2016-09-10T02:55:22.566Z,0
2016-09-10T02:56:22.877Z,0
2016-09-10T02:57:22.886Z,0
2016-09-10T02:58:22.548Z,0
2016-09-10T02:59:22.921Z,0
2016-09-10T03:00:22.655Z,0
2016-09-10T03:01:22.614Z,0
2016-09-10T03:02:22.657Z,0
2016-09-10T03:03:22.691Z,0
2016-09-10T03:04:22.680Z,0
2016-09-10T03:05:22.722Z,0
2016-09-10T03:06:22.732Z,0
2016-09-10T03:07:22.747Z,0
2016-09-10T03:08:23.103Z,0
2016-09-10T03:09:22.792Z,0
2016-09-10T03:10:23.115Z,0
2016-09-10T03:11:22.962Z,0
2016-09-10T03:12:22.941Z,0
2016-09-10T03:13:23.406Z,0
2016-09-10T03:14:22.968Z,0
2016-09-10T03:15:22.925Z,0
2016-09-10T03:16:22.971Z,0
2016-09-10T03:17:22.953Z,0
2016-09-10T03:18:23.081Z,0
2016-09-10T03:19:22.993Z,0
2016-09-10T03:20:23.075Z,0
2016-09-10T03:21:23.042Z,0
2016-09-10T03:22:23.076Z,0
2016-09-10T03:23:23.093Z,0
2016-09-10T03:24:23.096Z,0
2016-09-10T03:25:23.125Z,0
2016-09-10T03:26:23.149Z,0
2016-09-10T03:27:23.177Z,0
2016-09-10T03:28:23.178Z,0
2016-09-10T03:29:23.254Z,0
2016-09-10T03:30:23.231Z,0
2016-09-10T03:31:23.243Z,0
2016-09-10T03:32:23.280Z,0
2016-09-10T03:33:23.286Z,0
2016-09-10T03:34:23.306Z,0
2016-09-10T03:35:23.337Z,0
2016-09-10T03:36:23.352Z,0
2016-09-10T03:37:23.762Z,0
2016-09-10T03:38:23.392Z,0
2016-09-10T03:39:23.442Z,0
2016-09-10T03:40:23.442Z,0
2016-09-10T03:41:23.619Z,0
2016-09-10T03:42:23.497Z,0
2016-09-10T03:43:23.500Z,0
2016-09-10T03:44:23.861Z,0
2016-09-10T03:45:23.581Z,0
2016-09-10T03:46:23.604Z,0
2016-09-10T03:47:23.579Z,0
2016-09-10T03:48:23.593Z,0
2016-09-10T03:49:23.685Z,0
2016-09-10T03:50:23.641Z,0
2016-09-10T03:51:23.669Z,0
2016-09-10T03:52:23.686Z,0
2016-09-10T03:53:23.723Z,0
2016-09-10T03:54:23.716Z,0
2016-09-10T03:55:23.747Z,0
2016-09-10T03:56:23.762Z,0
2016-09-10T03:57:23.796Z,0
2016-09-10T03:58:24.127Z,0
2016-09-10T03:59:23.836Z,0
2016-09-10T04:00:23.854Z,0
2016-09-10T04:01:23.867Z,0
2016-09-10T04:02:23.875Z,0
2016-09-10T04:03:23.920Z,0
2016-09-10T04:04:24.026Z,0
2016-09-10T04:05:23.999Z,0
2016-09-10T04:06:24.080Z,0
2016-09-10T04:07:23.998Z,0
2016-09-10T04:08:24.009Z,0
2016-09-10T04:09:24.117Z,0
2016-09-10T04:10:24.125Z,0
2016-09-10T04:11:24.112Z,0
2016-09-10T04:12:24.225Z,0
2016-09-10T04:13:24.177Z,0
2016-09-10T04:14:24.184Z,0
2016-09-10T04:15:24.180Z,0
2016-09-10T04:16:24.191Z,0
2016-09-10T04:17:24.218Z,0
2016-09-10T04:18:24.224Z,0
2016-09-10T04:19:24.340Z,4
2016-09-10T04:20:24.324Z,4
2016-09-10T04:21:24.293Z,0
2016-09-10T04:22:24.495Z,4
2016-09-10T04:23:24.465Z,4
2016-09-10T04:24:24.348Z,4
2016-09-10T04:25:24.367Z,4
2016-09-10T04:26:24.388Z,4
2016-09-10T04:27:24.407Z,4
2016-09-10T04:28:24.431Z,8
2016-09-10T04:29:24.580Z,8
2016-09-10T04:30:24.469Z,12
2016-09-10T04:31:24.575Z,12
2016-09-10T04:32:24.851Z,16
2016-09-10T04:33:24.611Z,16
2016-09-10T04:34:24.612Z,20
2016-09-10T04:35:24.608Z,24
2016-09-10T04:36:24.605Z,24
2016-09-10T04:37:24.642Z,32
2016-09-10T04:38:24.643Z,36
2016-09-10T04:39:24.671Z,44
2016-09-10T04:40:24.679Z,44
2016-09-10T04:41:25.047Z,56
2016-09-10T04:42:24.709Z,60
2016-09-10T04:43:24.741Z,72
2016-09-10T04:44:24.775Z,80
2016-09-10T04:45:24.795Z,88
2016-09-10T04:46:24.794Z,100
2016-09-10T04:47:25.785Z,112
2016-09-10T04:48:24.921Z,124
2016-09-10T04:49:24.884Z,136
2016-09-10T04:50:24.875Z,148
2016-09-10T04:51:24.911Z,164
2016-09-10T04:52:24.942Z,180
2016-09-10T04:53:24.954Z,196
2016-09-10T04:54:24.983Z,216
2016-09-10T04:55:24.994Z,228
2016-09-10T04:56:25.010Z,248
2016-09-10T04:57:25.035Z,264
2016-09-10T04:58:25.074Z,284
2016-09-10T04:59:25.106Z,308
2016-09-10T05:00:25.099Z,328
2016-09-10T05:01:25.444Z,348
2016-09-10T05:02:25.187Z,372
2016-09-10T05:03:25.148Z,392
2016-09-10T05:04:25.222Z,416
2016-09-10T05:05:25.201Z,444
2016-09-10T05:06:25.319Z,468
2016-09-10T05:07:25.253Z,496
2016-09-10T05:08:25.275Z,524
2016-09-10T05:09:25.301Z,548
2016-09-10T05:10:25.309Z,576
2016-09-10T05:11:25.312Z,608
2016-09-10T05:12:25.374Z,636
2016-09-10T05:13:25.490Z,664
2016-09-10T05:14:25.414Z,696
2016-09-10T05:15:25.584Z,728
2016-09-10T05:16:25.505Z,756
2016-09-10T05:17:25.497Z,788
2016-09-10T05:18:25.480Z,820
2016-09-10T05:19:25.802Z,852
2016-09-10T05:20:25.499Z,884
2016-09-10T05:21:25.689Z,912
2016-09-10T05:22:25.615Z,948
2016-09-10T05:23:25.621Z,980
2016-09-10T05:24:25.646Z,1016
2016-09-10T05:25:25.609Z,1052
2016-09-10T05:26:25.637Z,1084
2016-09-10T05:27:25.641Z,1120
2016-09-10T05:28:25.993Z,1156
2016-09-10T05:29:25.691Z,1188
2016-09-10T05:30:26.083Z,1224
2016-09-10T05:31:25.726Z,1256
2016-09-10T05:32:25.749Z,1288
2016-09-10T05:33:25.769Z,1324
2016-09-10T05:34:25.790Z,1356
2016-09-10T05:35:26.144Z,1388
2016-09-10T05:36:25.891Z,1424
2016-09-10T05:37:25.887Z,1456
2016-09-10T05:38:25.870Z,1488
2016-09-10T05:39:25.886Z,1520
2016-09-10T05:40:25.917Z,1556
2016-09-10T05:41:25.998Z,1592
2016-09-10T05:42:25.992Z,1632
2016-09-10T05:43:26.011Z,1672
2016-09-10T05:44:26.012Z,1712
2016-09-10T05:45:26.080Z,1748
2016-09-10T05:46:26.040Z,1788
2016-09-10T05:47:26.449Z,1828
2016-09-10T05:48:26.185Z,1872
2016-09-10T05:49:26.118Z,1912
2016-09-10T05:50:26.140Z,1956
2016-09-10T05:51:26.160Z,1992
2016-09-10T05:52:26.176Z,2040
2016-09-10T05:53:26.199Z,2088
2016-09-10T05:54:26.552Z,2132
2016-09-10T05:55:26.220Z,2172
2016-09-10T05:56:26.247Z,2224
2016-09-10T05:57:26.660Z,2280
2016-09-10T05:58:26.605Z,2340
2016-09-10T05:59:26.324Z,2392
2016-09-10T06:00:26.414Z,2432
2016-09-10T06:01:26.370Z,2484
2016-09-10T06:02:26.827Z,2532
2016-09-10T06:03:26.427Z,2576
2016-09-10T06:04:26.766Z,2620
2016-09-10T06:05:26.455Z,2668
2016-09-10T06:06:26.471Z,2716
2016-09-10T06:07:26.485Z,2772
2016-09-10T06:08:26.517Z,2824
2016-09-10T06:09:26.540Z,2876
2016-09-10T06:10:26.891Z,2928
2016-09-10T06:11:26.608Z,2972
2016-09-10T06:12:26.606Z,3008
2016-09-10T06:13:26.624Z,3048
2016-09-10T06:14:26.975Z,3092
2016-09-10T06:15:27.243Z,3144
2016-09-10T06:16:26.697Z,3192
2016-09-10T06:17:26.716Z,3244
2016-09-10T06:18:26.729Z,3288
2016-09-10T06:19:26.755Z,3332
2016-09-10T06:20:27.114Z,3376
2016-09-10T06:21:26.775Z,3436
2016-09-10T06:22:26.815Z,3488
2016-09-10T06:23:26.841Z,3532
2016-09-10T06:24:26.846Z,3576
2016-09-10T06:25:26.875Z,3636
2016-09-10T06:26:27.219Z,3688
2016-09-10T06:27:26.935Z,3728
2016-09-10T06:28:26.942Z,3804
2016-09-10T06:29:27.295Z,3844
2016-09-10T06:30:26.998Z,3860
2016-09-10T06:31:27.043Z,3884
2016-09-10T06:32:27.387Z,3888
2016-09-10T06:33:27.073Z,3880
2016-09-10T06:34:27.072Z,3892
2016-09-10T06:35:27.092Z,3912
2016-09-10T06:36:27.134Z,3932
2016-09-10T06:37:27.147Z,3968
2016-09-10T06:38:27.171Z,4008
2016-09-10T06:39:27.174Z,4056
2016-09-10T06:40:27.248Z,4104
2016-09-10T06:41:27.227Z,4140
2016-09-10T06:42:27.252Z,4188
2016-09-10T06:43:27.701Z,4248
2016-09-10T06:44:27.289Z,4272
2016-09-10T06:45:27.320Z,4332
2016-09-10T06:46:27.337Z,4352
2016-09-10T06:47:27.379Z,4408
2016-09-10T06:48:27.798Z,4424
2016-09-10T06:49:27.414Z,4484
2016-09-10T06:50:27.434Z,4476
2016-09-10T06:51:27.776Z,4560
2016-09-10T06:52:27.511Z,4596
2016-09-10T06:53:27.489Z,4632
2016-09-10T06:54:27.621Z,4640
2016-09-10T06:55:27.584Z,4680
2016-09-10T06:56:27.635Z,4712
2016-09-10T06:57:27.601Z,4744
2016-09-10T06:58:27.824Z,4780
2016-09-10T06:59:27.952Z,4792
2016-09-10T07:00:27.821Z,4836
2016-09-10T07:01:27.679Z,4852
2016-09-10T07:02:27.867Z,4904
2016-09-10T07:03:27.733Z,4932
2016-09-10T07:04:27.769Z,4972
2016-09-10T07:05:27.788Z,5004
2016-09-10T07:06:27.820Z,5036
2016-09-10T07:07:28.463Z,5072
2016-09-10T07:08:27.852Z,5104
2016-09-10T07:09:27.862Z,5148
2016-09-10T07:10:27.888Z,5184
2016-09-10T07:11:27.920Z,5216
2016-09-10T07:12:28.296Z,5252
2016-09-10T07:13:27.991Z,5288
2016-09-10T07:14:27.994Z,5308
2016-09-10T07:15:28.002Z,5316
2016-09-10T07:16:28.014Z,5324
2016-09-10T07:17:28.043Z,5344
2016-09-10T07:18:28.070Z,5376
2016-09-10T07:19:28.373Z,5396
2016-09-10T07:20:28.118Z,5452
2016-09-10T07:21:28.155Z,5456
2016-09-10T07:22:28.167Z,5480
2016-09-10T07:23:28.202Z,5504
2016-09-10T07:24:28.279Z,5536
2016-09-10T07:25:28.579Z,5552
2016-09-10T07:26:28.262Z,5580
2016-09-10T07:27:28.618Z,5612
2016-09-10T07:28:28.614Z,5652
2016-09-10T07:29:28.325Z,5676
2016-09-10T07:30:28.402Z,5696
2016-09-10T07:31:28.478Z,5684
2016-09-10T07:32:28.405Z,5692
2016-09-10T07:33:28.422Z,5684
2016-09-10T07:34:28.528Z,5696
2016-09-10T07:35:28.879Z,5680
2016-09-10T07:36:28.484Z,5692
2016-09-10T07:37:28.537Z,5692
2016-09-10T07:38:28.860Z,5712
2016-09-10T07:39:28.577Z,5724
2016-09-10T07:40:28.922Z,5732
2016-09-10T07:41:28.621Z,5744
2016-09-10T07:42:28.630Z,5776
2016-09-10T07:43:28.658Z,5800
2016-09-10T07:44:28.682Z,5824
2016-09-10T07:45:28.703Z,5836
2016-09-10T07:46:28.732Z,5848
2016-09-10T07:47:28.919Z,5872
2016-09-10T07:48:28.770Z,5852
2016-09-10T07:49:28.827Z,5844
2016-09-10T07:50:28.821Z,5828
2016-09-10T07:51:28.842Z,5816
2016-09-10T07:52:28.868Z,5832
2016-09-10T07:53:28.893Z,5888
2016-09-10T07:54:28.927Z,5908
2016-09-10T07:55:28.958Z,5948
2016-09-10T07:56:28.965Z,5956
2016-09-10T07:58:29.036Z,6012
2016-09-10T07:59:29.022Z,6016
2016-09-10T08:00:29.370Z,6024
2016-09-10T08:01:29.066Z,6028
2016-09-10T08:02:29.452Z,6024
2016-09-10T08:03:29.157Z,6024
2016-09-10T08:04:29.134Z,6028
2016-09-10T08:06:29.219Z,6092
2016-09-10T08:10:30.127Z,6184
2016-09-10T08:14:29.370Z,6272
2016-09-10T08:15:29.845Z,6260
2016-09-10T08:16:29.846Z,6264
2016-09-10T08:17:29.448Z,6248
2016-09-10T08:18:29.458Z,6236
2016-09-10T08:19:29.502Z,6252
2016-09-10T08:20:29.524Z,6276
2016-09-10T08:21:29.556Z,6268
2016-09-10T08:22:29.557Z,6276
2016-09-10T08:23:29.585Z,6292
2016-09-10T08:24:29.604Z,6124
2016-09-10T08:25:29.644Z,6296
2016-09-10T08:26:29.702Z,6304
2016-09-10T08:27:29.698Z,6312
2016-09-10T08:28:29.720Z,6328
2016-09-10T08:29:29.745Z,6348
2016-09-10T08:30:30.168Z,6840
2016-09-10T08:31:29.784Z,6356
2016-09-10T08:32:29.864Z,6348
2016-09-10T08:33:29.845Z,6364
2016-09-10T08:34:30.191Z,6392
2016-09-10T08:35:29.906Z,6392
2016-09-10T08:36:30.037Z,6380
2016-09-10T08:37:30.360Z,6364
2016-09-10T08:38:30.666Z,6372
2016-09-10T08:39:30.035Z,6416
2016-09-10T08:40:30.070Z,6432
2016-09-10T08:41:30.062Z,6456
2016-09-10T08:42:30.064Z,6492
2016-09-10T08:43:30.101Z,6484
2016-09-10T08:44:30.119Z,6512
2016-09-10T08:45:30.289Z,6520
2016-09-10T08:46:30.152Z,6532
2016-09-10T08:47:30.234Z,6524
2016-09-10T08:48:30.203Z,6496
2016-09-10T08:49:30.241Z,6480
2016-09-10T08:50:30.254Z,6500
2016-09-10T08:51:30.339Z,6488
2016-09-10T08:52:30.335Z,6508
2016-09-10T08:53:30.346Z,6504
2016-09-10T08:54:30.352Z,6552
2016-09-10T08:55:30.385Z,6568
2016-09-10T08:56:30.420Z,6568
2016-09-10T08:57:30.450Z,6620
2016-09-10T08:58:30.452Z,6588
2016-09-10T08:59:30.488Z,6584
2016-09-10T09:00:30.492Z,6588
2016-09-10T09:01:30.544Z,6596
2016-09-10T09:02:30.596Z,6592
2016-09-10T09:03:30.752Z,6616
2016-09-10T09:04:30.806Z,6632
2016-09-10T09:05:30.775Z,6624
2016-09-10T09:06:30.668Z,6632
2016-09-10T09:07:30.910Z,6636
2016-09-10T09:08:30.706Z,6656
2016-09-10T09:09:30.763Z,6656
2016-09-10T09:10:30.935Z,6664
2016-09-10T09:11:30.876Z,6676
2016-09-10T09:12:31.269Z,6668
2016-09-10T09:13:31.056Z,6664
2016-09-10T09:14:30.847Z,6660
2016-09-10T09:15:31.593Z,6680
2016-09-10T09:16:30.888Z,6696
2016-09-10T09:17:30.980Z,6692
2016-09-10T09:18:30.959Z,6676
2016-09-10T09:19:30.966Z,6684
2016-09-10T09:20:31.026Z,6684
2016-09-10T09:21:31.048Z,6684
2016-09-10T09:22:31.046Z,6692
2016-09-10T09:23:31.091Z,6692
2016-09-10T09:24:31.154Z,6696
2016-09-10T09:25:31.134Z,6692
2016-09-10T09:26:31.476Z,6716
2016-09-10T09:27:31.190Z,6732
2016-09-10T09:28:31.215Z,6736
2016-09-10T09:29:31.229Z,6752
2016-09-10T09:30:31.268Z,6744
2016-09-10T09:31:31.276Z,6736
2016-09-10T09:32:31.646Z,6724
2016-09-10T09:33:31.339Z,6748
2016-09-10T09:34:31.365Z,6700
2016-09-10T09:35:31.396Z,6632
2016-09-10T09:36:31.396Z,6660
2016-09-10T09:37:31.460Z,6648
2016-09-10T09:38:31.487Z,6640
2016-09-10T09:39:31.486Z,6632
2016-09-10T09:40:31.517Z,6636
2016-09-10T09:41:31.537Z,6632
